Nearby METAR Reports

 

KDVT - Phoenix/Deer Vly, Arizona, USA
Distance from station: SW 14mi, 22km
Updated: 2023-02-04 00:53
Clear
Clear
 Wind from E
Wind: E 3 mph , 6 km/h
Temperature: 55°F , 13°C
Dew Point: 25°F , -4°C
Humidity: 31%
Barometer: 30.12 inHg , 1020 hPa
Clouds: Clear
Visibility: 10 miles , 16 km
2023/02/04 07:53 KDVT 040753Z AUTO 10003KT 10SM CLR 13/M04 A3012 RMK AO2 SLP185 T01281044
KSDL - Scottsdale, Arizona, USA
Distance from station: S 15mi, 23km
Updated: 2023-02-04 00:53
Clear
Clear
 Wind from varies
Wind: varies 3 mph , 6 km/h
Temperature: 55°F , 13°C
Dew Point: 25°F , -4°C
Humidity: 31%
Barometer: 30.12 inHg , 1020 hPa
Clouds: Clear
Visibility: 10 miles , 16 km
2023/02/04 07:53 KSDL 040753Z AUTO VRB03KT 10SM CLR 13/M04 A3012 RMK AO2 SLP185 T01281044
KFFZ - Mesa/Falcon Fld, Arizona, USA
Distance from station: SSE 27mi, 44km
Updated: 2023-02-04 00:54
Clear
Clear
 Wind from NE
Wind: NE 8 mph , 13 km/h
Temperature: 59°F , 15°C
Dew Point: 25°F , -4°C
Humidity: 27%
Barometer: 30.11 inHg , 1019.6 hPa
Clouds: Clear
Visibility: 10 miles , 16 km
2023/02/04 07:54 KFFZ 040754Z AUTO 04007KT 10SM CLR 15/M04 A3011 RMK AO2 SLP180 T01501044
 
KPHX - Phoenix/Sky Hrbr, Arizona, USA
Distance from station: SSW 28mi, 45km
Updated: 2023-02-04 00:51
Mostly cloudy
Mostly cloudy
 Wind from ENE
Wind: ENE 3 mph , 6 km/h
Temperature: 55°F , 13°C
Dew Point: 30°F , -1°C
Humidity: 38%
Barometer: 30.09 inHg , 1019 hPa
Clouds: Mostly cloudy
Visibility: 10 miles , 16 km
Cloud details: Partly cloudy 18000 ft
Mostly cloudy 25000 ft
2023/02/04 07:51 KPHX 040751Z 07003KT 10SM SCT180 BKN250 13/M01 A3009 RMK AO2 SLP181 T01281006
KLUF - Luke Afb/Glendal, Arizona, USA
Distance from station: SW 34mi, 55km
Updated: 2023-02-04 00:55
Clear
Clear
 Wind from calm
Wind: Calm
Temperature: 48°F , 9°C
Dew Point: 36°F , 2°C
Humidity: 62%
Barometer: 30.11 inHg , 1019.6 hPa
Clouds: Clear
Visibility: 10 miles , 16 km
2023/02/04 07:55 KLUF 040755Z AUTO 00000KT 10SM CLR 09/02 A3011 RMK AO2 SLP193 T00920021 $
KGYR - Goodyear Municip, Arizona, USA
Distance from station: SW 39mi, 63km
Updated: 2023-02-03 20:47
NOT Current
Overcast
Overcast
 Wind from calm
Wind: Calm
Temperature: 61°F , 16°C
Dew Point: 34°F , 1°C
Humidity: 36%
Barometer: 30.11 inHg , 1019.6 hPa
Clouds: Overcast
Visibility: 10 miles , 16 km
Cloud details: Partly cloudy 15000 ft
Overcast 22000 ft
2023/02/04 03:47 KGYR 040347Z 00000KT 10SM SCT150 OVC220 16/01 A3011
 
KIWA - Chandler/Mesa, Arizona, USA
Distance from station: SSE 39mi, 63km
Updated: 2023-02-04 00:55
Clear
Clear
 Wind from calm
Wind: Calm
Temperature: 52°F , 11°C
Dew Point: 34°F , 1°C
Humidity: 50%
Barometer: 30.13 inHg , 1020.3 hPa
Clouds: Clear
Visibility: 10 miles , 16 km
2023/02/04 07:55 KIWA 040755Z AUTO 00000KT 10SM CLR 11/01 A3013 RMK AO2 T01130007
KPAN - Payson, Arizona, USA
Distance from station: NE 44mi, 70km
Updated: 2023-02-04 00:55
Clear
Clear
 Wind from NE
Wind: NE 3 mph , 6 km/h
Temperature: 41°F , 5°C
Dew Point: 16°F , -9°C
Humidity: 36%
Barometer: 30.28 inHg , 1025.4 hPa
Clouds: Clear
Visibility: 10 miles , 16 km
2023/02/04 07:55 KPAN 040755Z AUTO 04003KT 10SM CLR 05/M09 A3028 RMK AO2 PWINO TSNO
KBXK - Buckeye, Arizona, USA
Distance from station: WSW 53mi, 86km
Updated: 2023-02-04 00:55
Clear
Clear
 Wind from N
Wind: N 7 mph , 11 km/h
Temperature: 45°F , 7°C
Wind Chill: 41°F , 5°C
Dew Point: 39°F , 4°C
Humidity: 81%
Barometer: 30.12 inHg , 1020 hPa
Clouds: Clear
Visibility: 10 miles , 16 km
2023/02/04 07:55 KBXK 040755Z AUTO 35006KT 10SM CLR 07/04 A3012 RMK A01
 
KA39 - Maricopa Ak-Chin, Arizona, USA
Distance from station: S 58mi, 94km
Updated: 2023-02-04 00:55
Mostly cloudy
Mostly cloudy
 Wind from calm
Wind: Calm
Temperature: 45°F , 7°C
Dew Point: 36°F , 2°C
Humidity: 71%
Barometer: 30.15 inHg , 1021 hPa
Clouds: Mostly cloudy
Visibility: 10 miles , 16 km
Cloud details: Mostly cloudy 10000 ft
Mostly cloudy 12000 ft
2023/02/04 07:55 KA39 040755Z AUTO 00000KT 10SM BKN100 BKN120 07/02 A3015 RMK AO2
KPRC - Prescott, Arizona, USA
Distance from station: NNW 64mi, 103km
Updated: 2023-02-04 00:53
Clear
Clear
 Wind from SSW
Wind: SSW 3 mph , 6 km/h
Temperature: 34°F , 1°C
Dew Point: 18°F , -8°C
Humidity: 51%
Barometer: 30.24 inHg , 1024 hPa
Clouds: Clear
Visibility: 10 miles , 16 km
2023/02/04 07:53 KPRC 040753Z AUTO 21003KT 10SM CLR 01/M08 A3024 RMK AO2 SLP208 T00061078
KSEZ - Sedona, Arizona, USA
Distance from station: N 71mi, 114km
Updated: 2023-02-04 00:55
Clear
Clear
 Wind from NNE
Wind: NNE 10 mph , 17 km/h
Temperature: 43°F , 6°C
Wind Chill: 37°F , 3°C
Dew Point: 21°F , -6°C
Humidity: 42%
Barometer: 30.25 inHg , 1024.4 hPa
Clouds: Clear
Visibility: 10 miles , 16 km
2023/02/04 07:55 KSEZ 040755Z AUTO 02009KT 10SM CLR 06/M06 A3025 RMK AO2
 
KFLG - Flagstaff, Arizona, USA
Distance from station: N 91mi, 147km
Updated: 2023-02-04 00:57
Clear
Clear
 Wind from calm
Wind: Calm
Temperature: 25°F , -4°C
Dew Point: 19°F , -7°C
Humidity: 80%
Barometer: 30.27 inHg , 1025.1 hPa
Clouds: Clear
Visibility: 10 miles , 16 km
2023/02/04 07:57 KFLG 040757Z AUTO 00000KT 10SM CLR M04/M07 A3027 RMK AO2 SLP233 T10441072